sensor_id;sensor_type;location;lat;lon;timestamp;temperature;humidity
68385;DHT22;55336;43.062;25.626;2023-10-13T00:01:06;6.60;99.90
68385;DHT22;55336;43.062;25.626;2023-10-13T00:03:57;6.70;99.90
68385;DHT22;55336;43.062;25.626;2023-10-13T00:06:46;6.60;99.90
68385;DHT22;55336;43.062;25.626;2023-10-13T00:09:16;6.60;99.90
68385;DHT22;55336;43.062;25.626;2023-10-13T00:11:57;6.60;99.90
68385;DHT22;55336;43.062;25.626;2023-10-13T00:14:26;6.50;99.90
68385;DHT22;55336;43.062;25.626;2023-10-13T00:17:11;6.60;99.90
68385;DHT22;55336;43.062;25.626;2023-10-13T00:19:50;6.50;99.90
68385;DHT22;55336;43.062;25.626;2023-10-13T00:22:27;6.50;99.90
68385;DHT22;55336;43.062;25.626;2023-10-13T00:24:56;6.50;99.90
68385;DHT22;55336;43.062;25.626;2023-10-13T00:27:31;6.50;99.90
68385;DHT22;55336;43.062;25.626;2023-10-13T00:30:09;6.40;99.90
68385;DHT22;55336;43.062;25.626;2023-10-13T00:32:55;6.30;99.90
68385;DHT22;55336;43.062;25.626;2023-10-13T00:35:27;6.30;99.90
68385;DHT22;55336;43.062;25.626;2023-10-13T00:38:10;6.30;99.90
68385;DHT22;55336;43.062;25.626;2023-10-13T00:40:44;6.30;99.90
68385;DHT22;55336;43.062;25.626;2023-10-13T00:43:20;6.10;99.90
68385;DHT22;55336;43.062;25.626;2023-10-13T00:48:32;6.20;99.90
68385;DHT22;55336;43.062;25.626;2023-10-13T00:51:06;6.20;99.90
68385;DHT22;55336;43.062;25.626;2023-10-13T00:53:33;6.20;99.90
68385;DHT22;55336;43.062;25.626;2023-10-13T00:56:01;6.20;99.90
68385;DHT22;55336;43.062;25.626;2023-10-13T00:58:33;6.20;99.90
68385;DHT22;55336;43.062;25.626;2023-10-13T01:01:07;6.20;99.90
68385;DHT22;55336;43.062;25.626;2023-10-13T01:03:55;6.20;99.90
68385;DHT22;55336;43.062;25.626;2023-10-13T01:06:27;6.20;99.90
68385;DHT22;55336;43.062;25.626;2023-10-13T01:09:00;6.20;99.90
68385;DHT22;55336;43.062;25.626;2023-10-13T01:11:39;6.10;99.90
68385;DHT22;55336;43.062;25.626;2023-10-13T01:14:11;6.20;99.90
68385;DHT22;55336;43.062;25.626;2023-10-13T01:16:43;6.20;99.90
68385;DHT22;55336;43.062;25.626;2023-10-13T01:19:12;5.60;99.90
68385;DHT22;55336;43.062;25.626;2023-10-13T01:21:44;6.10;99.90
68385;DHT22;55336;43.062;25.626;2023-10-13T01:24:13;6.10;99.90
68385;DHT22;55336;43.062;25.626;2023-10-13T01:26:45;6.10;99.90
68385;DHT22;55336;43.062;25.626;2023-10-13T01:29:16;6.00;99.90
68385;DHT22;55336;43.062;25.626;2023-10-13T01:31:45;6.00;99.90
68385;DHT22;55336;43.062;25.626;2023-10-13T01:34:23;6.00;99.90
68385;DHT22;55336;43.062;25.626;2023-10-13T01:37:18;6.00;99.90
68385;DHT22;55336;43.062;25.626;2023-10-13T01:39:57;6.00;99.90
68385;DHT22;55336;43.062;25.626;2023-10-13T01:42:26;6.00;99.90
68385;DHT22;55336;43.062;25.626;2023-10-13T01:44:58;6.20;99.90
68385;DHT22;55336;43.062;25.626;2023-10-13T01:47:36;5.90;99.90
68385;DHT22;55336;43.062;25.626;2023-10-13T01:50:08;6.00;99.90
68385;DHT22;55336;43.062;25.626;2023-10-13T01:52:56;6.00;99.90
68385;DHT22;55336;43.062;25.626;2023-10-13T01:55:40;6.00;99.90
68385;DHT22;55336;43.062;25.626;2023-10-13T01:58:16;5.90;99.90
68385;DHT22;55336;43.062;25.626;2023-10-13T02:00:48;5.80;99.90
68385;DHT22;55336;43.062;25.626;2023-10-13T02:03:20;5.80;99.90
68385;DHT22;55336;43.062;25.626;2023-10-13T02:05:51;5.80;99.90
68385;DHT22;55336;43.062;25.626;2023-10-13T02:08:28;5.80;99.90
68385;DHT22;55336;43.062;25.626;2023-10-13T02:10:59;5.80;99.90
68385;DHT22;55336;43.062;25.626;2023-10-13T02:13:35;5.80;99.90
68385;DHT22;55336;43.062;25.626;2023-10-13T02:16:16;5.80;99.90
68385;DHT22;55336;43.062;25.626;2023-10-13T02:18:55;5.80;99.90
68385;DHT22;55336;43.062;25.626;2023-10-13T02:21:27;5.80;99.90
68385;DHT22;55336;43.062;25.626;2023-10-13T02:23:57;5.70;99.90
68385;DHT22;55336;43.062;25.626;2023-10-13T02:26:38;5.70;99.90
68385;DHT22;55336;43.062;25.626;2023-10-13T02:29:09;5.70;99.90
68385;DHT22;55336;43.062;25.626;2023-10-13T02:31:47;5.70;99.90
68385;DHT22;55336;43.062;25.626;2023-10-13T02:34:23;5.60;99.90
68385;DHT22;55336;43.062;25.626;2023-10-13T02:37:03;5.60;99.90
68385;DHT22;55336;43.062;25.626;2023-10-13T02:39:39;5.60;99.90
68385;DHT22;55336;43.062;25.626;2023-10-13T02:42:07;5.60;99.90
68385;DHT22;55336;43.062;25.626;2023-10-13T02:44:34;5.70;99.90
68385;DHT22;55336;43.062;25.626;2023-10-13T02:47:04;5.70;99.90
68385;DHT22;55336;43.062;25.626;2023-10-13T02:49:49;5.70;99.90
68385;DHT22;55336;43.062;25.626;2023-10-13T02:52:34;5.70;99.90
68385;DHT22;55336;43.062;25.626;2023-10-13T02:55:15;5.70;99.90
68385;DHT22;55336;43.062;25.626;2023-10-13T02:58:00;5.70;99.90
68385;DHT22;55336;43.062;25.626;2023-10-13T03:00:45;5.70;99.90
68385;DHT22;55336;43.062;25.626;2023-10-13T03:03:19;5.60;99.90
68385;DHT22;55336;43.062;25.626;2023-10-13T03:06:19;5.60;99.90
68385;DHT22;55336;43.062;25.626;2023-10-13T03:09:08;5.60;99.90
68385;DHT22;55336;43.062;25.626;2023-10-13T03:11:51;5.50;99.90
68385;DHT22;55336;43.062;25.626;2023-10-13T03:14:24;5.50;99.90
68385;DHT22;55336;43.062;25.626;2023-10-13T03:17:02;5.50;99.90
68385;DHT22;55336;43.062;25.626;2023-10-13T03:19:37;5.60;99.90
68385;DHT22;55336;43.062;25.626;2023-10-13T03:22:28;5.50;99.90
68385;DHT22;55336;43.062;25.626;2023-10-13T03:25:15;5.50;99.90
68385;DHT22;55336;43.062;25.626;2023-10-13T03:28:07;5.40;99.90
68385;DHT22;55336;43.062;25.626;2023-10-13T03:30:41;5.40;99.90
68385;DHT22;55336;43.062;25.626;2023-10-13T03:33:09;5.40;99.90
68385;DHT22;55336;43.062;25.626;2023-10-13T03:35:41;5.20;99.90
68385;DHT22;55336;43.062;25.626;2023-10-13T03:38:10;5.50;99.90
68385;DHT22;55336;43.062;25.626;2023-10-13T03:40:49;5.40;99.90
68385;DHT22;55336;43.062;25.626;2023-10-13T03:43:28;5.40;99.90
68385;DHT22;55336;43.062;25.626;2023-10-13T03:46:04;5.40;99.90
68385;DHT22;55336;43.062;25.626;2023-10-13T03:48:36;5.30;99.90
68385;DHT22;55336;43.062;25.626;2023-10-13T03:51:22;5.30;99.90
68385;DHT22;55336;43.062;25.626;2023-10-13T03:53:59;5.30;99.90
68385;DHT22;55336;43.062;25.626;2023-10-13T03:56:40;5.30;99.90
68385;DHT22;55336;43.062;25.626;2023-10-13T03:59:20;5.30;99.90
68385;DHT22;55336;43.062;25.626;2023-10-13T04:01:51;5.30;99.90
68385;DHT22;55336;43.062;25.626;2023-10-13T04:04:31;5.30;99.90
68385;DHT22;55336;43.062;25.626;2023-10-13T04:07:23;5.10;99.90
68385;DHT22;55336;43.062;25.626;2023-10-13T04:09:57;5.30;99.90
68385;DHT22;55336;43.062;25.626;2023-10-13T04:12:51;5.20;99.90
68385;DHT22;55336;43.062;25.626;2023-10-13T04:15:47;5.20;99.90
68385;DHT22;55336;43.062;25.626;2023-10-13T04:18:52;5.00;99.90
68385;DHT22;55336;43.062;25.626;2023-10-13T04:21:24;5.20;99.90
68385;DHT22;55336;43.062;25.626;2023-10-13T04:24:20;5.10;99.90
68385;DHT22;55336;43.062;25.626;2023-10-13T04:27:07;5.00;99.90
68385;DHT22;55336;43.062;25.626;2023-10-13T04:29:42;5.20;99.90
68385;DHT22;55336;43.062;25.626;2023-10-13T04:32:43;5.20;99.90
68385;DHT22;55336;43.062;25.626;2023-10-13T04:35:39;5.20;99.90
68385;DHT22;55336;43.062;25.626;2023-10-13T04:38:14;5.20;99.90
68385;DHT22;55336;43.062;25.626;2023-10-13T04:41:04;5.20;99.90
68385;DHT22;55336;43.062;25.626;2023-10-13T04:43:52;5.20;99.90
68385;DHT22;55336;43.062;25.626;2023-10-13T04:46:23;5.30;99.90
68385;DHT22;55336;43.062;25.626;2023-10-13T04:49:14;5.30;99.90
68385;DHT22;55336;43.062;25.626;2023-10-13T04:52:10;5.30;99.90
68385;DHT22;55336;43.062;25.626;2023-10-13T04:55:15;5.00;99.90
68385;DHT22;55336;43.062;25.626;2023-10-13T04:58:32;5.40;99.90
68385;DHT22;55336;43.062;25.626;2023-10-13T05:01:09;5.50;99.90
68385;DHT22;55336;43.062;25.626;2023-10-13T05:03:51;5.60;99.90
68385;DHT22;55336;43.062;25.626;2023-10-13T05:06:29;5.70;99.90
68385;DHT22;55336;43.062;25.626;2023-10-13T05:09:16;5.50;99.90
68385;DHT22;55336;43.062;25.626;2023-10-13T05:12:01;5.80;99.90
68385;DHT22;55336;43.062;25.626;2023-10-13T05:14:48;5.90;99.90
68385;DHT22;55336;43.062;25.626;2023-10-13T05:17:34;6.00;99.90
68385;DHT22;55336;43.062;25.626;2023-10-13T05:20:21;6.10;99.90
68385;DHT22;55336;43.062;25.626;2023-10-13T05:23:09;6.20;99.90
68385;DHT22;55336;43.062;25.626;2023-10-13T05:25:53;6.40;99.90
68385;DHT22;55336;43.062;25.626;2023-10-13T05:28:39;6.50;99.90
68385;DHT22;55336;43.062;25.626;2023-10-13T05:31:27;6.60;99.90
68385;DHT22;55336;43.062;25.626;2023-10-13T05:34:11;7.20;99.90
68385;DHT22;55336;43.062;25.626;2023-10-13T05:36:56;6.90;99.90
68385;DHT22;55336;43.062;25.626;2023-10-13T05:39:41;7.00;99.90
68385;DHT22;55336;43.062;25.626;2023-10-13T05:42:25;7.30;99.90
68385;DHT22;55336;43.062;25.626;2023-10-13T05:45:20;7.60;99.90
68385;DHT22;55336;43.062;25.626;2023-10-13T05:48:05;7.90;99.90
68385;DHT22;55336;43.062;25.626;2023-10-13T05:50:53;8.20;99.90
68385;DHT22;55336;43.062;25.626;2023-10-13T05:53:44;8.50;99.90
68385;DHT22;55336;43.062;25.626;2023-10-13T06:06:22;10.30;99.90
68385;DHT22;55336;43.062;25.626;2023-10-13T06:09:06;10.60;99.90
68385;DHT22;55336;43.062;25.626;2023-10-13T06:11:57;11.20;99.90
68385;DHT22;55336;43.062;25.626;2023-10-13T06:14:47;11.80;99.90
68385;DHT22;55336;43.062;25.626;2023-10-13T06:17:32;12.40;99.90
68385;DHT22;55336;43.062;25.626;2023-10-13T06:20:16;12.80;99.90
68385;DHT22;55336;43.062;25.626;2023-10-13T06:23:00;13.30;99.90
68385;DHT22;55336;43.062;25.626;2023-10-13T06:25:50;13.70;99.90
68385;DHT22;55336;43.062;25.626;2023-10-13T06:28:34;14.20;99.90
68385;DHT22;55336;43.062;25.626;2023-10-13T06:31:06;14.60;99.90
68385;DHT22;55336;43.062;25.626;2023-10-13T06:33:33;14.90;99.90
68385;DHT22;55336;43.062;25.626;2023-10-13T06:35:59;15.10;99.90
68385;DHT22;55336;43.062;25.626;2023-10-13T06:38:25;15.60;99.90
68385;DHT22;55336;43.062;25.626;2023-10-13T06:40:56;16.00;99.90
68385;DHT22;55336;43.062;25.626;2023-10-13T06:43:22;16.30;99.90
68385;DHT22;55336;43.062;25.626;2023-10-13T06:45:49;16.80;99.90
68385;DHT22;55336;43.062;25.626;2023-10-13T06:48:27;17.20;99.90
68385;DHT22;55336;43.062;25.626;2023-10-13T06:50:53;17.60;99.90
68385;DHT22;55336;43.062;25.626;2023-10-13T06:53:21;17.90;99.90
68385;DHT22;55336;43.062;25.626;2023-10-13T06:55:47;18.20;99.90
68385;DHT22;55336;43.062;25.626;2023-10-13T06:58:15;18.50;99.90
68385;DHT22;55336;43.062;25.626;2023-10-13T07:00:43;18.70;99.90
68385;DHT22;55336;43.062;25.626;2023-10-13T07:03:23;19.10;99.90
68385;DHT22;55336;43.062;25.626;2023-10-13T07:05:50;19.40;99.90
68385;DHT22;55336;43.062;25.626;2023-10-13T07:08:16;19.80;98.30
68385;DHT22;55336;43.062;25.626;2023-10-13T07:10:55;19.80;96.80
68385;DHT22;55336;43.062;25.626;2023-10-13T07:13:43;19.90;95.30
68385;DHT22;55336;43.062;25.626;2023-10-13T07:16:15;20.20;92.40
68385;DHT22;55336;43.062;25.626;2023-10-13T07:18:41;20.50;90.20
68385;DHT22;55336;43.062;25.626;2023-10-13T07:21:18;20.80;88.00
68385;DHT22;55336;43.062;25.626;2023-10-13T07:23:50;21.30;84.70
68385;DHT22;55336;43.062;25.626;2023-10-13T07:26:26;21.80;84.00
68385;DHT22;55336;43.062;25.626;2023-10-13T07:28:53;21.80;78.10
68385;DHT22;55336;43.062;25.626;2023-10-13T07:31:19;21.90;77.30
68385;DHT22;55336;43.062;25.626;2023-10-13T07:33:46;21.90;77.00
68385;DHT22;55336;43.062;25.626;2023-10-13T07:36:12;21.70;78.20
68385;DHT22;55336;43.062;25.626;2023-10-13T07:38:41;22.00;76.60
68385;DHT22;55336;43.062;25.626;2023-10-13T07:41:08;22.40;74.80
68385;DHT22;55336;43.062;25.626;2023-10-13T07:43:34;22.40;74.40
68385;DHT22;55336;43.062;25.626;2023-10-13T07:46:00;23.00;73.50
68385;DHT22;55336;43.062;25.626;2023-10-13T07:48:32;23.10;70.80
68385;DHT22;55336;43.062;25.626;2023-10-13T07:50:59;23.60;68.20
68385;DHT22;55336;43.062;25.626;2023-10-13T07:53:29;23.80;64.90
68385;DHT22;55336;43.062;25.626;2023-10-13T07:56:02;23.80;65.20
68385;DHT22;55336;43.062;25.626;2023-10-13T07:58:31;24.00;63.80
68385;DHT22;55336;43.062;25.626;2023-10-13T08:00:59;24.30;62.60
68385;DHT22;55336;43.062;25.626;2023-10-13T08:03:35;24.70;61.30
68385;DHT22;55336;43.062;25.626;2023-10-13T08:06:08;25.30;60.10
68385;DHT22;55336;43.062;25.626;2023-10-13T08:08:37;25.60;57.10
68385;DHT22;55336;43.062;25.626;2023-10-13T08:11:15;25.70;56.40
68385;DHT22;55336;43.062;25.626;2023-10-13T08:13:57;26.10;56.80
68385;DHT22;55336;43.062;25.626;2023-10-13T08:16:35;26.40;54.70
68385;DHT22;55336;43.062;25.626;2023-10-13T08:19:20;26.10;53.50
68385;DHT22;55336;43.062;25.626;2023-10-13T08:21:52;26.40;53.40
68385;DHT22;55336;43.062;25.626;2023-10-13T08:24:23;26.80;52.00
68385;DHT22;55336;43.062;25.626;2023-10-13T08:27:15;27.20;51.20
68385;DHT22;55336;43.062;25.626;2023-10-13T08:29:44;27.60;50.40
68385;DHT22;55336;43.062;25.626;2023-10-13T08:32:19;27.50;50.70
68385;DHT22;55336;43.062;25.626;2023-10-13T08:34:49;27.40;50.30
68385;DHT22;55336;43.062;25.626;2023-10-13T08:37:18;27.60;47.70
68385;DHT22;55336;43.062;25.626;2023-10-13T08:39:52;27.30;48.60
68385;DHT22;55336;43.062;25.626;2023-10-13T08:45:08;28.10;47.10
68385;DHT22;55336;43.062;25.626;2023-10-13T08:47:56;28.10;45.60
68385;DHT22;55336;43.062;25.626;2023-10-13T08:50:43;28.20;45.40
68385;DHT22;55336;43.062;25.626;2023-10-13T08:53:15;28.80;44.20
68385;DHT22;55336;43.062;25.626;2023-10-13T08:56:02;29.20;43.50
68385;DHT22;55336;43.062;25.626;2023-10-13T08:58:40;29.30;43.10
68385;DHT22;55336;43.062;25.626;2023-10-13T09:01:24;29.50;43.00
68385;DHT22;55336;43.062;25.626;2023-10-13T09:04:00;29.60;42.30
68385;DHT22;55336;43.062;25.626;2023-10-13T09:06:50;30.00;41.40
68385;DHT22;55336;43.062;25.626;2023-10-13T09:09:30;30.00;40.40
68385;DHT22;55336;43.062;25.626;2023-10-13T09:12:22;29.70;40.10
68385;DHT22;55336;43.062;25.626;2023-10-13T09:15:02;29.60;41.00
68385;DHT22;55336;43.062;25.626;2023-10-13T09:17:39;29.40;40.50
68385;DHT22;55336;43.062;25.626;2023-10-13T09:20:06;29.30;41.70
68385;DHT22;55336;43.062;25.626;2023-10-13T09:22:50;29.20;42.00
68385;DHT22;55336;43.062;25.626;2023-10-13T09:25:31;29.40;41.60
68385;DHT22;55336;43.062;25.626;2023-10-13T09:28:12;29.70;39.80
68385;DHT22;55336;43.062;25.626;2023-10-13T09:30:46;29.70;39.10
68385;DHT22;55336;43.062;25.626;2023-10-13T09:33:12;29.30;40.10
68385;DHT22;55336;43.062;25.626;2023-10-13T09:35:44;29.50;40.40
68385;DHT22;55336;43.062;25.626;2023-10-13T09:38:17;29.90;40.10
68385;DHT22;55336;43.062;25.626;2023-10-13T09:40:43;30.00;39.40
68385;DHT22;55336;43.062;25.626;2023-10-13T09:43:19;29.90;40.20
68385;DHT22;55336;43.062;25.626;2023-10-13T09:45:48;29.50;38.60
68385;DHT22;55336;43.062;25.626;2023-10-13T09:48:54;28.90;39.50
68385;DHT22;55336;43.062;25.626;2023-10-13T09:51:39;28.60;40.90
68385;DHT22;55336;43.062;25.626;2023-10-13T09:56:41;29.40;40.10
68385;DHT22;55336;43.062;25.626;2023-10-13T09:59:19;29.90;38.70
68385;DHT22;55336;43.062;25.626;2023-10-13T10:01:48;30.20;37.90
68385;DHT22;55336;43.062;25.626;2023-10-13T10:04:17;30.80;36.10
68385;DHT22;55336;43.062;25.626;2023-10-13T10:06:54;31.20;36.50
68385;DHT22;55336;43.062;25.626;2023-10-13T10:09:26;31.80;34.90
68385;DHT22;55336;43.062;25.626;2023-10-13T10:12:13;31.70;34.70
68385;DHT22;55336;43.062;25.626;2023-10-13T10:17:28;31.00;35.30
68385;DHT22;55336;43.062;25.626;2023-10-13T10:19:55;30.80;35.90
68385;DHT22;55336;43.062;25.626;2023-10-13T10:24:59;30.50;39.10
68385;DHT22;55336;43.062;25.626;2023-10-13T10:27:28;30.60;36.70
68385;DHT22;55336;43.062;25.626;2023-10-13T10:29:57;30.50;36.20
68385;DHT22;55336;43.062;25.626;2023-10-13T10:32:41;30.20;36.70
68385;DHT22;55336;43.062;25.626;2023-10-13T10:35:11;29.20;38.90
68385;DHT22;55336;43.062;25.626;2023-10-13T10:37:46;29.30;35.00
68385;DHT22;55336;43.062;25.626;2023-10-13T10:40:15;29.40;34.00
68385;DHT22;55336;43.062;25.626;2023-10-13T10:43:14;29.50;34.50
68385;DHT22;55336;43.062;25.626;2023-10-13T10:45:48;29.40;36.80
68385;DHT22;55336;43.062;25.626;2023-10-13T10:48:18;29.20;38.20
68385;DHT22;55336;43.062;25.626;2023-10-13T10:50:45;29.30;37.90
68385;DHT22;55336;43.062;25.626;2023-10-13T10:53:19;29.40;38.50
68385;DHT22;55336;43.062;25.626;2023-10-13T10:55:47;29.50;38.00
68385;DHT22;55336;43.062;25.626;2023-10-13T10:58:12;28.80;39.60
68385;DHT22;55336;43.062;25.626;2023-10-13T11:01:06;28.70;39.20
68385;DHT22;55336;43.062;25.626;2023-10-13T11:03:54;28.70;37.80
68385;DHT22;55336;43.062;25.626;2023-10-13T11:06:23;28.50;38.30
68385;DHT22;55336;43.062;25.626;2023-10-13T11:09:06;28.60;39.30
68385;DHT22;55336;43.062;25.626;2023-10-13T11:11:44;28.60;37.60
68385;DHT22;55336;43.062;25.626;2023-10-13T11:14:19;28.90;38.50
68385;DHT22;55336;43.062;25.626;2023-10-13T11:16:48;29.10;39.80
68385;DHT22;55336;43.062;25.626;2023-10-13T11:19:33;29.60;38.60
68385;DHT22;55336;43.062;25.626;2023-10-13T11:22:09;29.20;36.90
68385;DHT22;55336;43.062;25.626;2023-10-13T11:24:41;29.30;36.10
68385;DHT22;55336;43.062;25.626;2023-10-13T11:27:16;28.50;37.10
68385;DHT22;55336;43.062;25.626;2023-10-13T11:29:46;28.70;39.90
68385;DHT22;55336;43.062;25.626;2023-10-13T11:32:17;28.40;38.20
68385;DHT22;55336;43.062;25.626;2023-10-13T11:34:45;28.20;38.70
68385;DHT22;55336;43.062;25.626;2023-10-13T11:37:14;28.00;39.20
68385;DHT22;55336;43.062;25.626;2023-10-13T11:40:03;28.10;38.80
68385;DHT22;55336;43.062;25.626;2023-10-13T11:42:35;28.10;38.70
68385;DHT22;55336;43.062;25.626;2023-10-13T11:45:01;28.80;37.50
68385;DHT22;55336;43.062;25.626;2023-10-13T11:47:47;29.60;36.60
68385;DHT22;55336;43.062;25.626;2023-10-13T11:50:13;29.70;35.80
68385;DHT22;55336;43.062;25.626;2023-10-13T11:52:39;29.40;36.60
68385;DHT22;55336;43.062;25.626;2023-10-13T11:55:05;28.90;36.80
68385;DHT22;55336;43.062;25.626;2023-10-13T11:57:32;28.50;37.70
68385;DHT22;55336;43.062;25.626;2023-10-13T11:59:58;28.40;38.30
68385;DHT22;55336;43.062;25.626;2023-10-13T12:02:44;28.20;38.80
68385;DHT22;55336;43.062;25.626;2023-10-13T12:05:28;28.00;40.20
68385;DHT22;55336;43.062;25.626;2023-10-13T12:08:13;27.70;40.00
68385;DHT22;55336;43.062;25.626;2023-10-13T12:10:47;27.50;39.90
68385;DHT22;55336;43.062;25.626;2023-10-13T12:13:25;27.60;40.60
68385;DHT22;55336;43.062;25.626;2023-10-13T12:15:51;27.40;40.50
68385;DHT22;55336;43.062;25.626;2023-10-13T12:18:18;27.60;40.80
68385;DHT22;55336;43.062;25.626;2023-10-13T12:20:44;27.80;40.30
68385;DHT22;55336;43.062;25.626;2023-10-13T12:23:14;28.00;39.20
68385;DHT22;55336;43.062;25.626;2023-10-13T12:25:44;27.80;39.20
68385;DHT22;55336;43.062;25.626;2023-10-13T12:28:21;28.10;39.50
68385;DHT22;55336;43.062;25.626;2023-10-13T12:30:49;28.20;39.10
68385;DHT22;55336;43.062;25.626;2023-10-13T12:33:14;28.40;39.40
68385;DHT22;55336;43.062;25.626;2023-10-13T12:35:49;28.70;38.40
68385;DHT22;55336;43.062;25.626;2023-10-13T12:38:34;28.90;38.20
68385;DHT22;55336;43.062;25.626;2023-10-13T12:41:12;28.50;38.60
68385;DHT22;55336;43.062;25.626;2023-10-13T12:43:56;28.20;38.70
68385;DHT22;55336;43.062;25.626;2023-10-13T12:46:41;28.50;37.50
68385;DHT22;55336;43.062;25.626;2023-10-13T12:49:25;28.20;38.20
68385;DHT22;55336;43.062;25.626;2023-10-13T12:52:08;27.90;38.30
68385;DHT22;55336;43.062;25.626;2023-10-13T12:54:55;27.70;39.10
68385;DHT22;55336;43.062;25.626;2023-10-13T12:57:39;27.50;40.50
68385;DHT22;55336;43.062;25.626;2023-10-13T13:00:11;27.40;41.80
68385;DHT22;55336;43.062;25.626;2023-10-13T13:02:55;27.40;41.60
68385;DHT22;55336;43.062;25.626;2023-10-13T13:05:26;27.30;40.70
68385;DHT22;55336;43.062;25.626;2023-10-13T13:07:56;27.30;40.90
68385;DHT22;55336;43.062;25.626;2023-10-13T13:10:23;27.30;41.80
68385;DHT22;55336;43.062;25.626;2023-10-13T13:13:03;27.30;40.20
68385;DHT22;55336;43.062;25.626;2023-10-13T13:15:32;27.20;39.60
68385;DHT22;55336;43.062;25.626;2023-10-13T13:17:59;27.10;39.10
68385;DHT22;55336;43.062;25.626;2023-10-13T13:20:35;27.10;38.80
68385;DHT22;55336;43.062;25.626;2023-10-13T13:23:11;26.90;43.20
68385;DHT22;55336;43.062;25.626;2023-10-13T13:25:48;26.90;39.00
68385;DHT22;55336;43.062;25.626;2023-10-13T13:28:16;27.10;39.40
68385;DHT22;55336;43.062;25.626;2023-10-13T13:30:42;26.90;40.10
68385;DHT22;55336;43.062;25.626;2023-10-13T13:33:07;26.70;42.80
68385;DHT22;55336;43.062;25.626;2023-10-13T13:35:41;26.80;43.90
68385;DHT22;55336;43.062;25.626;2023-10-13T13:38:14;26.70;41.90
68385;DHT22;55336;43.062;25.626;2023-10-13T13:40:47;26.70;41.50
68385;DHT22;55336;43.062;25.626;2023-10-13T13:43:22;26.70;45.30
68385;DHT22;55336;43.062;25.626;2023-10-13T13:46:03;26.50;46.40
68385;DHT22;55336;43.062;25.626;2023-10-13T13:48:29;26.40;44.50
68385;DHT22;55336;43.062;25.626;2023-10-13T13:50:56;26.10;49.70
68385;DHT22;55336;43.062;25.626;2023-10-13T13:53:30;26.10;48.60
68385;DHT22;55336;43.062;25.626;2023-10-13T13:56:03;26.10;46.90
68385;DHT22;55336;43.062;25.626;2023-10-13T14:01:07;25.50;52.70
68385;DHT22;55336;43.062;25.626;2023-10-13T14:03:47;25.60;53.40
68385;DHT22;55336;43.062;25.626;2023-10-13T14:06:19;25.50;52.10
68385;DHT22;55336;43.062;25.626;2023-10-13T14:08:55;25.50;51.80
68385;DHT22;55336;43.062;25.626;2023-10-13T14:11:22;25.30;53.70
68385;DHT22;55336;43.062;25.626;2023-10-13T14:14:15;25.10;57.10
68385;DHT22;55336;43.062;25.626;2023-10-13T14:16:50;25.10;57.90
68385;DHT22;55336;43.062;25.626;2023-10-13T14:19:16;25.10;56.60
68385;DHT22;55336;43.062;25.626;2023-10-13T14:22:00;25.10;57.20
68385;DHT22;55336;43.062;25.626;2023-10-13T14:24:32;25.00;57.40
68385;DHT22;55336;43.062;25.626;2023-10-13T14:27:01;24.90;54.00
68385;DHT22;55336;43.062;25.626;2023-10-13T14:29:37;24.80;57.10
68385;DHT22;55336;43.062;25.626;2023-10-13T14:32:12;24.60;57.90
68385;DHT22;55336;43.062;25.626;2023-10-13T14:34:41;24.60;58.30
68385;DHT22;55336;43.062;25.626;2023-10-13T14:37:07;24.20;60.10
68385;DHT22;55336;43.062;25.626;2023-10-13T14:39:34;24.20;60.10
68385;DHT22;55336;43.062;25.626;2023-10-13T14:42:01;24.20;61.60
68385;DHT22;55336;43.062;25.626;2023-10-13T14:44:28;24.00;61.70
68385;DHT22;55336;43.062;25.626;2023-10-13T14:46:53;23.80;62.50
68385;DHT22;55336;43.062;25.626;2023-10-13T14:49:22;23.70;62.30
68385;DHT22;55336;43.062;25.626;2023-10-13T14:51:48;23.30;62.50
68385;DHT22;55336;43.062;25.626;2023-10-13T14:54:15;23.10;64.70
68385;DHT22;55336;43.062;25.626;2023-10-13T14:56:41;22.90;66.00
68385;DHT22;55336;43.062;25.626;2023-10-13T14:59:09;22.70;66.60
68385;DHT22;55336;43.062;25.626;2023-10-13T15:01:42;22.60;65.90
68385;DHT22;55336;43.062;25.626;2023-10-13T15:04:08;22.50;68.60
68385;DHT22;55336;43.062;25.626;2023-10-13T15:06:34;22.40;71.00
68385;DHT22;55336;43.062;25.626;2023-10-13T15:09:00;22.30;69.70
68385;DHT22;55336;43.062;25.626;2023-10-13T15:11:26;22.10;69.50
68385;DHT22;55336;43.062;25.626;2023-10-13T15:13:53;22.00;70.10
68385;DHT22;55336;43.062;25.626;2023-10-13T15:16:20;21.50;71.70
68385;DHT22;55336;43.062;25.626;2023-10-13T15:18:47;21.60;72.00
68385;DHT22;55336;43.062;25.626;2023-10-13T15:21:19;21.40;73.00
68385;DHT22;55336;43.062;25.626;2023-10-13T15:23:47;21.20;73.90
68385;DHT22;55336;43.062;25.626;2023-10-13T15:26:12;21.10;76.00
68385;DHT22;55336;43.062;25.626;2023-10-13T15:28:40;20.90;76.30
68385;DHT22;55336;43.062;25.626;2023-10-13T15:31:17;20.80;76.10
68385;DHT22;55336;43.062;25.626;2023-10-13T15:34:03;20.60;78.90
68385;DHT22;55336;43.062;25.626;2023-10-13T15:36:32;20.50;80.80
68385;DHT22;55336;43.062;25.626;2023-10-13T15:38:58;20.40;81.40
68385;DHT22;55336;43.062;25.626;2023-10-13T15:41:27;20.30;83.80
68385;DHT22;55336;43.062;25.626;2023-10-13T15:43:53;20.20;86.90
68385;DHT22;55336;43.062;25.626;2023-10-13T15:46:20;20.10;89.90
68385;DHT22;55336;43.062;25.626;2023-10-13T15:48:50;20.00;93.50
68385;DHT22;55336;43.062;25.626;2023-10-13T15:51:16;19.90;95.60
68385;DHT22;55336;43.062;25.626;2023-10-13T15:53:43;19.70;96.40
68385;DHT22;55336;43.062;25.626;2023-10-13T15:56:09;19.60;99.90
68385;DHT22;55336;43.062;25.626;2023-10-13T15:58:38;19.60;99.90
68385;DHT22;55336;43.062;25.626;2023-10-13T16:01:05;19.60;99.90
68385;DHT22;55336;43.062;25.626;2023-10-13T16:03:33;19.50;99.90
68385;DHT22;55336;43.062;25.626;2023-10-13T16:06:02;19.40;99.90
68385;DHT22;55336;43.062;25.626;2023-10-13T16:08:30;19.30;99.90
68385;DHT22;55336;43.062;25.626;2023-10-13T16:11:03;19.10;99.90
68385;DHT22;55336;43.062;25.626;2023-10-13T16:13:33;19.10;99.90
68385;DHT22;55336;43.062;25.626;2023-10-13T16:15:59;19.00;99.90
68385;DHT22;55336;43.062;25.626;2023-10-13T16:18:26;18.90;99.90
68385;DHT22;55336;43.062;25.626;2023-10-13T16:20:51;18.80;99.90
68385;DHT22;55336;43.062;25.626;2023-10-13T16:23:17;18.70;99.90
68385;DHT22;55336;43.062;25.626;2023-10-13T16:25:43;18.60;99.90
68385;DHT22;55336;43.062;25.626;2023-10-13T16:28:10;18.50;99.90
68385;DHT22;55336;43.062;25.626;2023-10-13T16:30:37;18.30;99.90
68385;DHT22;55336;43.062;25.626;2023-10-13T16:33:03;18.20;99.90
68385;DHT22;55336;43.062;25.626;2023-10-13T16:35:29;18.10;99.90
68385;DHT22;55336;43.062;25.626;2023-10-13T16:37:59;18.00;99.90